createdAt,value
2018-04-13T00:00:48.183Z,9.53
2018-04-13T00:01:48.137Z,9.47
2018-04-13T00:02:48.105Z,9.53
2018-04-13T00:03:48.093Z,9.47
2018-04-13T00:04:48.020Z,9.46
2018-04-13T00:05:47.976Z,9.38
2018-04-13T00:06:47.951Z,9.36
2018-04-13T00:07:47.904Z,9.31
2018-04-13T00:08:47.854Z,9.40
2018-04-13T00:09:47.848Z,9.38
2018-04-13T00:10:47.777Z,9.24
2018-04-13T00:11:47.744Z,9.26
2018-04-13T00:12:47.707Z,9.23
2018-04-13T00:13:47.655Z,9.28
2018-04-13T00:14:47.653Z,9.21
2018-04-13T00:15:47.581Z,9.20
2018-04-13T00:16:47.532Z,9.14
2018-04-13T00:17:47.500Z,9.26
2018-04-13T00:18:47.456Z,9.20
2018-04-13T00:19:47.433Z,9.15
2018-04-13T00:20:47.410Z,9.20
2018-04-13T00:21:47.341Z,9.23
2018-04-13T00:22:47.303Z,9.29
2018-04-13T00:23:47.264Z,9.18
2018-04-13T00:24:47.225Z,9.28
2018-04-13T00:25:47.191Z,9.17
2018-04-13T00:26:47.183Z,9.17
2018-04-13T00:27:47.094Z,9.14
2018-04-13T00:28:47.072Z,9.20
2018-04-13T00:29:47.024Z,9.10
2018-04-13T00:30:46.978Z,9.08
2018-04-13T00:31:46.966Z,9.02
2018-04-13T00:32:46.899Z,8.98
2018-04-13T00:33:46.854Z,9.05
2018-04-13T00:34:46.825Z,9.04
2018-04-13T00:35:46.771Z,9.02
2018-04-13T00:36:46.751Z,9.02
2018-04-13T00:37:46.728Z,8.96
2018-04-13T00:38:46.659Z,9.10
2018-04-13T00:39:46.615Z,9.05
2018-04-13T00:40:46.582Z,9.02
2018-04-13T00:41:46.540Z,8.98
2018-04-13T00:42:46.525Z,9.10
2018-04-13T00:43:46.480Z,8.99
2018-04-13T00:44:46.416Z,8.96
2018-04-13T00:45:46.370Z,9.01
2018-04-13T00:46:46.371Z,8.91
2018-04-13T00:47:46.305Z,8.95
2018-04-13T00:48:46.281Z,8.98
2018-04-13T00:49:46.219Z,8.99
2018-04-13T00:50:46.174Z,9.01
2018-04-13T00:51:46.135Z,9.04
2018-04-13T00:52:46.099Z,9.02
2018-04-13T00:53:46.076Z,9.10
2018-04-13T00:54:46.016Z,9.02
2018-04-13T00:55:45.971Z,9.02
2018-04-13T00:56:45.944Z,8.98
2018-04-13T00:57:45.891Z,9.04
2018-04-13T00:58:45.853Z,8.92
2018-04-13T00:59:45.846Z,8.91
2018-04-13T01:00:45.764Z,8.89
2018-04-13T01:01:45.734Z,8.91
2018-04-13T01:02:45.705Z,8.86
2018-04-13T01:03:45.650Z,8.92
2018-04-13T01:04:45.653Z,8.96
2018-04-13T01:05:45.562Z,8.94
2018-04-13T01:06:45.538Z,8.92
2018-04-13T01:07:45.491Z,8.89
2018-04-13T01:08:45.450Z,8.91
2018-04-13T01:09:45.405Z,8.86
2018-04-13T01:10:45.393Z,8.86
2018-04-13T01:11:45.335Z,8.73
2018-04-13T01:12:45.279Z,8.70
2018-04-13T01:13:45.244Z,8.74
2018-04-13T01:14:45.199Z,8.65
2018-04-13T01:15:45.161Z,8.62
2018-04-13T01:16:45.157Z,8.66
2018-04-13T01:17:45.087Z,8.58
2018-04-13T01:18:45.071Z,8.41
2018-04-13T01:19:45.006Z,8.41
2018-04-13T01:20:44.988Z,8.41
2018-04-13T01:21:44.920Z,8.34
2018-04-13T01:22:44.882Z,8.37
2018-04-13T01:23:44.840Z,8.37
2018-04-13T01:24:44.810Z,8.26
2018-04-13T01:25:44.789Z,8.36
2018-04-13T01:26:44.723Z,8.36
2018-04-13T01:27:44.674Z,8.36
2018-04-13T01:28:44.643Z,8.43
2018-04-13T01:29:44.591Z,8.43
2018-04-13T01:30:44.565Z,8.52
2018-04-13T01:31:44.543Z,8.40
2018-04-13T01:32:44.480Z,8.44
2018-04-13T01:33:44.434Z,8.44
2018-04-13T01:34:44.389Z,8.40
2018-04-13T01:35:44.354Z,8.23
2018-04-13T01:36:44.349Z,8.25
2018-04-13T01:37:44.276Z,8.26
2018-04-13T01:38:44.239Z,8.40
2018-04-13T01:39:44.186Z,8.22
2018-04-13T01:40:44.146Z,8.23
2018-04-13T01:41:44.117Z,8.23
2018-04-13T01:42:44.100Z,8.23
2018-04-13T01:43:44.034Z,8.26
2018-04-13T01:44:43.988Z,8.26
2018-04-13T01:45:43.957Z,8.15
2018-04-13T01:46:43.908Z,8.23
2018-04-13T01:47:43.901Z,8.11
2018-04-13T01:48:43.826Z,8.18
2018-04-13T01:49:43.785Z,8.16
2018-04-13T01:50:43.749Z,8.15
2018-04-13T01:51:43.713Z,8.28
2018-04-13T01:52:43.688Z,8.28
2018-04-13T01:53:43.627Z,8.30
2018-04-13T01:54:43.590Z,8.23
2018-04-13T01:55:43.546Z,8.34
2018-04-13T01:56:43.507Z,8.15
2018-04-13T01:57:43.462Z,8.23
2018-04-13T01:58:43.442Z,8.19
2018-04-13T01:59:43.375Z,8.15
2018-04-13T02:00:43.342Z,8.19
2018-04-13T02:01:43.293Z,8.11
2018-04-13T02:02:43.258Z,8.15
2018-04-13T02:03:43.249Z,8.20
2018-04-13T02:04:43.174Z,8.15
2018-04-13T02:05:43.138Z,8.28
2018-04-13T02:06:43.085Z,8.16
2018-04-13T02:07:43.065Z,8.19
2018-04-13T02:08:43.008Z,8.10
2018-04-13T02:09:43.006Z,8.08
2018-04-13T02:10:42.934Z,8.05
2018-04-13T02:11:42.891Z,8.01
2018-04-13T02:12:42.842Z,7.93
2018-04-13T02:13:42.814Z,8.00
2018-04-13T02:14:42.764Z,8.05
2018-04-13T02:15:42.760Z,8.18
2018-04-13T02:16:42.687Z,8.16
2018-04-13T02:17:42.665Z,7.95
2018-04-13T02:18:42.607Z,8.02
2018-04-13T02:19:42.565Z,7.98
2018-04-13T02:20:42.551Z,8.01
2018-04-13T02:21:42.476Z,8.12
2018-04-13T02:22:42.447Z,8.08
2018-04-13T02:23:42.396Z,8.15
2018-04-13T02:24:42.354Z,8.08
2018-04-13T02:25:42.323Z,8.04
2018-04-13T02:26:42.311Z,8.04
2018-04-13T02:27:42.239Z,7.90
2018-04-13T02:28:42.202Z,7.90
2018-04-13T02:29:42.156Z,7.90
2018-04-13T02:30:42.109Z,7.86
2018-04-13T02:31:42.079Z,7.85
2018-04-13T02:32:42.069Z,7.68
2018-04-13T02:33:41.990Z,7.57
2018-04-13T02:34:42.005Z,7.60
2018-04-13T02:35:41.910Z,7.58
2018-04-13T02:36:41.868Z,7.74
2018-04-13T02:37:41.833Z,7.74
2018-04-13T02:38:41.812Z,7.71
2018-04-13T02:39:41.756Z,7.75
2018-04-13T02:40:41.704Z,7.75
2018-04-13T02:41:41.703Z,7.74
2018-04-13T02:42:41.619Z,7.72
2018-04-13T02:43:41.613Z,7.67
2018-04-13T02:44:41.539Z,7.64
2018-04-13T02:45:41.501Z,7.58
2018-04-13T02:46:41.465Z,7.53
2018-04-13T02:47:41.417Z,7.52
2018-04-13T02:48:41.378Z,7.46
2018-04-13T02:49:41.360Z,7.58
2018-04-13T02:50:41.311Z,7.53
2018-04-13T02:51:41.248Z,7.60
2018-04-13T02:52:41.215Z,7.61
2018-04-13T02:53:41.180Z,7.58
2018-04-13T02:54:41.134Z,7.60
2018-04-13T02:55:41.118Z,7.77
2018-04-13T02:56:41.047Z,7.74
2018-04-13T02:57:41.035Z,7.71
2018-04-13T02:58:40.963Z,7.57
2018-04-13T02:59:40.924Z,7.61
2018-04-13T03:00:40.925Z,7.42
2018-04-13T03:01:40.870Z,7.37
2018-04-13T03:02:40.801Z,7.37
2018-04-13T03:03:40.786Z,7.46
2018-04-13T03:04:40.717Z,7.40
2018-04-13T03:05:40.683Z,7.42
2018-04-13T03:06:40.666Z,7.49
2018-04-13T03:07:40.599Z,7.37
2018-04-13T03:08:40.554Z,7.42
2018-04-13T03:09:40.513Z,7.48
2018-04-13T03:10:40.473Z,7.40
2018-04-13T03:11:40.437Z,7.50
2018-04-13T03:12:40.417Z,7.43
2018-04-13T03:13:40.356Z,7.37
2018-04-13T03:14:40.325Z,7.43
2018-04-13T03:15:40.276Z,7.39
2018-04-13T03:16:40.229Z,7.42
2018-04-13T03:17:40.215Z,7.43
2018-04-13T03:18:40.145Z,7.40
2018-04-13T03:19:40.101Z,7.43
2018-04-13T03:20:40.059Z,7.40
2018-04-13T03:21:40.014Z,7.35
2018-04-13T03:22:39.978Z,7.27
2018-04-13T03:23:39.975Z,7.21
2018-04-13T03:24:39.898Z,7.27
2018-04-13T03:25:39.865Z,7.27
2018-04-13T03:26:39.808Z,7.31
2018-04-13T03:27:39.777Z,7.34
2018-04-13T03:28:39.737Z,7.28
2018-04-13T03:29:39.716Z,7.43
2018-04-13T03:30:39.650Z,7.24
2018-04-13T03:31:39.614Z,7.35
2018-04-13T03:32:39.568Z,7.35
2018-04-13T03:33:39.532Z,7.32
2018-04-13T03:34:39.485Z,7.32
2018-04-13T03:35:39.486Z,7.28
2018-04-13T03:36:39.403Z,7.17
2018-04-13T03:37:39.362Z,7.17
2018-04-13T03:38:39.319Z,7.32
2018-04-13T03:39:39.287Z,7.27
2018-04-13T03:40:39.274Z,7.16
2018-04-13T03:41:39.192Z,7.25
2018-04-13T03:42:39.158Z,7.10
2018-04-13T03:43:39.116Z,7.20
2018-04-13T03:44:39.080Z,7.15
2018-04-13T03:45:39.031Z,6.97
2018-04-13T03:46:39.020Z,7.07
2018-04-13T03:47:38.956Z,7.10
2018-04-13T03:48:38.913Z,6.95
2018-04-13T03:49:38.860Z,6.99
2018-04-13T03:50:38.828Z,6.98
2018-04-13T03:51:38.789Z,7.03
2018-04-13T03:52:38.778Z,6.99
2018-04-13T03:53:38.703Z,6.97
2018-04-13T03:54:38.671Z,7.02
2018-04-13T03:55:38.618Z,6.88
2018-04-13T03:56:38.573Z,6.92
2018-04-13T03:57:38.588Z,6.81
2018-04-13T03:58:38.509Z,6.94
2018-04-13T03:59:38.458Z,6.91
2018-04-13T04:00:38.419Z,6.88
2018-04-13T04:01:38.365Z,6.98
2018-04-13T04:02:38.340Z,7.03
2018-04-13T04:03:38.317Z,6.99
2018-04-13T04:04:38.247Z,6.91
2018-04-13T04:05:38.211Z,6.85
2018-04-13T04:06:38.169Z,6.94
2018-04-13T04:07:38.150Z,6.98
2018-04-13T04:08:38.080Z,7.03
2018-04-13T04:09:38.072Z,6.98
2018-04-13T04:10:38.003Z,6.97
2018-04-13T04:11:37.959Z,6.88
2018-04-13T04:12:37.923Z,6.98
2018-04-13T04:13:37.881Z,6.89
2018-04-13T04:14:37.874Z,7.02
2018-04-13T04:15:37.810Z,6.94
2018-04-13T04:16:37.744Z,6.98
2018-04-13T04:17:37.716Z,6.99
2018-04-13T04:18:37.669Z,6.97
2018-04-13T04:19:37.629Z,6.98
2018-04-13T04:20:37.617Z,7.02
2018-04-13T04:21:37.546Z,6.94
2018-04-13T04:22:37.511Z,7.06
2018-04-13T04:23:37.458Z,6.88
2018-04-13T04:24:37.422Z,6.89
2018-04-13T04:25:37.380Z,6.97
2018-04-13T04:26:37.373Z,6.91
2018-04-13T04:27:37.300Z,6.92
2018-04-13T04:28:37.255Z,6.97
2018-04-13T04:29:37.215Z,6.91
2018-04-13T04:30:37.169Z,6.97
2018-04-13T04:31:37.130Z,6.92
2018-04-13T04:32:37.120Z,6.91
2018-04-13T04:33:37.045Z,6.87
2018-04-13T04:34:37.023Z,6.81
2018-04-13T04:35:36.965Z,6.85
2018-04-13T04:36:36.924Z,6.77
2018-04-13T04:37:36.915Z,6.71
2018-04-13T04:38:36.845Z,6.74
2018-04-13T04:39:36.798Z,6.66
2018-04-13T04:40:36.758Z,6.80
2018-04-13T04:41:36.728Z,6.77
2018-04-13T04:42:36.673Z,6.67
2018-04-13T04:43:36.661Z,6.66
2018-04-13T04:44:36.598Z,6.69
2018-04-13T04:45:36.556Z,6.71
2018-04-13T04:46:36.519Z,6.80
2018-04-13T04:47:36.470Z,6.71
2018-04-13T04:48:36.445Z,6.74
2018-04-13T04:49:36.414Z,6.71
2018-04-13T04:50:36.349Z,6.71
2018-04-13T04:51:36.302Z,6.69
2018-04-13T04:52:36.270Z,6.73
2018-04-13T04:53:36.220Z,6.62
2018-04-13T04:54:36.213Z,6.77
2018-04-13T04:55:36.134Z,6.69
2018-04-13T04:56:36.105Z,6.79
2018-04-13T04:57:36.057Z,6.84
2018-04-13T04:58:36.016Z,6.91
2018-04-13T04:59:36.020Z,6.88
2018-04-13T05:00:35.957Z,6.98
2018-04-13T05:01:35.893Z,6.95
2018-04-13T05:02:35.850Z,7.10
2018-04-13T05:03:35.825Z,7.13
2018-04-13T05:04:35.771Z,7.16
2018-04-13T05:05:35.753Z,7.17
2018-04-13T05:06:35.693Z,7.27
2018-04-13T05:07:35.651Z,7.31
2018-04-13T05:08:35.606Z,7.27
2018-04-13T05:09:35.570Z,7.30
2018-04-13T05:10:35.515Z,7.27
2018-04-13T05:11:35.508Z,7.32
2018-04-13T05:12:35.432Z,7.31
2018-04-13T05:13:35.404Z,7.30
2018-04-13T05:14:35.356Z,7.27
2018-04-13T05:15:35.321Z,7.39
2018-04-13T05:16:35.302Z,7.35
2018-04-13T05:17:35.235Z,7.46
2018-04-13T05:18:35.199Z,7.39
2018-04-13T05:19:35.145Z,7.39
2018-04-13T05:20:35.111Z,7.42
2018-04-13T05:21:35.072Z,7.43
2018-04-13T05:22:35.078Z,7.50
2018-04-13T05:23:34.990Z,7.50
2018-04-13T05:24:34.951Z,7.53
2018-04-13T05:25:34.901Z,7.58
2018-04-13T05:26:34.869Z,7.67
2018-04-13T05:27:34.825Z,7.58
2018-04-13T05:28:34.820Z,7.61
2018-04-13T05:29:34.752Z,7.79
2018-04-13T05:30:34.706Z,7.75
2018-04-13T05:31:34.676Z,7.68
2018-04-13T05:32:34.615Z,7.80
2018-04-13T05:33:34.608Z,7.92
2018-04-13T05:34:34.545Z,7.90
2018-04-13T05:35:34.495Z,7.87
2018-04-13T05:36:34.464Z,8.02
2018-04-13T05:37:34.413Z,8.05
2018-04-13T05:38:34.382Z,8.11
2018-04-13T05:39:34.368Z,8.15
2018-04-13T05:40:34.297Z,8.20
2018-04-13T05:41:34.259Z,8.22
2018-04-13T05:42:34.207Z,8.20
2018-04-13T05:43:34.169Z,8.30
2018-04-13T05:44:34.132Z,8.29
2018-04-13T05:45:34.130Z,8.25
2018-04-13T05:46:34.051Z,8.40
2018-04-13T05:47:34.008Z,8.62
2018-04-13T05:48:33.966Z,8.87
2018-04-13T05:49:33.935Z,9.05
2018-04-13T05:50:33.897Z,9.23
2018-04-13T05:51:33.871Z,9.24
2018-04-13T05:52:33.807Z,9.40
2018-04-13T05:53:33.775Z,9.43
2018-04-13T05:54:33.732Z,9.66
2018-04-13T05:55:33.687Z,9.79
2018-04-13T05:56:33.671Z,9.84
2018-04-13T05:57:33.609Z,9.87
2018-04-13T05:58:33.567Z,9.84
2018-04-13T05:59:33.528Z,9.86
2018-04-13T06:00:33.484Z,9.86
2018-04-13T06:01:33.436Z,10.02
2018-04-13T06:02:33.440Z,10.09
2018-04-13T06:03:33.443Z,10.14
2018-04-13T06:04:33.325Z,10.11
2018-04-13T06:05:33.294Z,10.07
2018-04-13T06:06:33.257Z,10.12
2018-04-13T06:07:33.208Z,10.07
2018-04-13T06:08:33.195Z,10.15
2018-04-13T06:09:33.125Z,10.23
2018-04-13T06:10:33.082Z,10.14
2018-04-13T06:11:33.053Z,10.33
2018-04-13T06:12:33.009Z,10.30
2018-04-13T06:13:33.035Z,10.38
2018-04-13T06:14:32.928Z,10.33
2018-04-13T06:15:32.889Z,10.30
2018-04-13T06:16:32.841Z,10.30
2018-04-13T06:17:32.810Z,10.34
2018-04-13T06:18:33.691Z,10.33
2018-04-13T06:19:32.762Z,10.42
2018-04-13T06:20:32.685Z,10.40
2018-04-13T06:21:32.646Z,10.44
2018-04-13T06:22:32.618Z,10.51
2018-04-13T06:23:32.566Z,10.48
2018-04-13T06:24:32.534Z,10.45
2018-04-13T06:25:32.520Z,10.55
2018-04-13T06:26:32.444Z,10.55
2018-04-13T06:27:32.412Z,10.64
2018-04-13T06:28:32.373Z,10.76
2018-04-13T06:29:32.352Z,10.71
2018-04-13T06:30:32.318Z,10.68
2018-04-13T06:31:32.269Z,10.88
2018-04-13T06:32:32.218Z,10.85
2018-04-13T06:33:32.180Z,10.86
2018-04-13T06:34:32.136Z,11.02
2018-04-13T06:35:32.093Z,11.00
2018-04-13T06:36:32.078Z,11.04
2018-04-13T06:37:32.020Z,11.03
2018-04-13T06:38:31.980Z,11.00
2018-04-13T06:39:31.943Z,11.04
2018-04-13T06:40:31.904Z,11.03
2018-04-13T06:41:31.876Z,11.15
2018-04-13T06:42:31.856Z,11.14
2018-04-13T06:43:31.783Z,11.11
2018-04-13T06:44:31.738Z,11.17
2018-04-13T06:45:31.701Z,11.17
2018-04-13T06:46:31.659Z,11.19
2018-04-13T06:47:31.635Z,11.35
2018-04-13T06:48:31.619Z,11.43
2018-04-13T06:49:31.558Z,11.43
2018-04-13T06:50:31.514Z,11.57
2018-04-13T06:51:31.482Z,11.57
2018-04-13T06:52:31.443Z,11.64
2018-04-13T06:53:31.419Z,11.58
2018-04-13T06:54:31.365Z,11.64
2018-04-13T06:55:31.315Z,11.73
2018-04-13T06:56:31.280Z,11.73
2018-04-13T06:57:31.237Z,11.86
2018-04-13T06:58:31.204Z,11.95
2018-04-13T06:59:31.186Z,12.01
2018-04-13T07:00:31.137Z,12.16
2018-04-13T07:01:31.094Z,12.21
2018-04-13T07:02:31.101Z,12.27
2018-04-13T07:03:31.012Z,12.46
2018-04-13T07:04:30.979Z,12.31
2018-04-13T07:05:30.961Z,12.32
2018-04-13T07:06:30.885Z,12.27
2018-04-13T07:07:30.857Z,12.28
2018-04-13T07:08:30.809Z,12.27
2018-04-13T07:09:30.782Z,12.31
2018-04-13T07:10:30.784Z,12.28
2018-04-13T07:11:30.698Z,12.28
2018-04-13T07:12:30.660Z,12.21
2018-04-13T07:13:30.639Z,12.04
2018-04-13T07:14:30.583Z,12.04
2018-04-13T07:15:30.551Z,12.01
2018-04-13T07:16:30.536Z,11.95
2018-04-13T07:17:30.483Z,11.95
2018-04-13T07:18:30.431Z,11.85
2018-04-13T07:19:30.400Z,12.04
2018-04-13T07:20:30.363Z,11.94
2018-04-13T07:21:30.311Z,12.04
2018-04-13T07:22:30.307Z,12.05
2018-04-13T07:23:30.241Z,12.07
2018-04-13T07:24:30.205Z,12.02
2018-04-13T07:25:30.167Z,12.09
2018-04-13T07:26:30.131Z,12.19
2018-04-13T07:27:30.123Z,12.12
2018-04-13T07:28:30.065Z,12.02
2018-04-13T07:29:30.014Z,12.05
2018-04-13T07:30:30.011Z,12.01
2018-04-13T07:31:29.938Z,12.14
2018-04-13T07:32:29.907Z,12.17
2018-04-13T07:33:29.907Z,12.14
2018-04-13T07:34:29.870Z,12.16
2018-04-13T07:35:29.788Z,12.17
2018-04-13T07:36:29.754Z,12.19
2018-04-13T07:37:29.721Z,12.12
2018-04-13T07:38:29.673Z,12.02
2018-04-13T07:39:29.664Z,11.98
2018-04-13T07:40:29.795Z,12.05
2018-04-13T07:41:29.560Z,12.05
2018-04-13T07:42:29.528Z,12.21
2018-04-13T07:43:29.491Z,12.19
2018-04-13T07:44:29.479Z,12.28
2018-04-13T07:45:29.418Z,12.23
2018-04-13T07:46:29.392Z,12.41
2018-04-13T07:47:29.341Z,12.52
2018-04-13T07:48:29.301Z,12.62
2018-04-13T07:49:29.259Z,12.56
2018-04-13T07:50:29.259Z,12.62
2018-04-13T07:51:29.178Z,12.56
2018-04-13T07:52:29.166Z,12.77
2018-04-13T07:53:29.130Z,12.83
2018-04-13T07:54:29.077Z,12.85
2018-04-13T07:55:29.033Z,12.93
2018-04-13T07:56:29.054Z,13.07
2018-04-13T07:57:28.958Z,13.07
2018-04-13T07:58:28.916Z,13.03
2018-04-13T07:59:28.897Z,12.92
2018-04-13T08:00:28.841Z,13.00
2018-04-13T08:01:28.809Z,13.01
2018-04-13T08:02:28.809Z,13.05
2018-04-13T08:03:28.740Z,13.08
2018-04-13T08:04:28.693Z,13.17
2018-04-13T08:05:28.673Z,13.26
2018-04-13T08:06:28.627Z,13.26
2018-04-13T08:07:28.620Z,13.44
2018-04-13T08:08:28.546Z,13.33
2018-04-13T08:09:28.982Z,13.49
2018-04-13T08:10:28.467Z,13.49
2018-04-13T08:11:28.443Z,13.52
2018-04-13T08:12:28.402Z,13.64
2018-04-13T08:13:28.413Z,13.77
2018-04-13T08:14:28.326Z,13.81
2018-04-13T08:15:28.298Z,13.75
2018-04-13T08:16:28.253Z,13.87
2018-04-13T08:17:28.216Z,13.85
2018-04-13T08:18:28.173Z,13.77
2018-04-13T08:19:28.168Z,13.70
2018-04-13T08:20:28.127Z,13.66
2018-04-13T08:21:28.063Z,13.54
2018-04-13T08:22:28.033Z,13.59
2018-04-13T08:23:27.995Z,13.54
2018-04-13T08:24:28.003Z,13.28
2018-04-13T08:25:27.920Z,13.14
2018-04-13T08:26:27.926Z,13.26
2018-04-13T08:27:27.870Z,13.29
2018-04-13T08:28:27.819Z,13.44
2018-04-13T08:29:27.772Z,13.41
2018-04-13T08:30:27.773Z,13.48
2018-04-13T08:31:27.695Z,13.54
2018-04-13T08:32:27.682Z,13.55
2018-04-13T08:33:27.615Z,13.69
2018-04-13T08:34:27.590Z,13.70
2018-04-13T08:35:27.548Z,13.73
2018-04-13T08:36:27.573Z,13.77
2018-04-13T08:37:27.475Z,13.85
2018-04-13T08:38:27.467Z,13.82
2018-04-13T08:39:27.409Z,13.78
2018-04-13T08:40:27.355Z,13.81
2018-04-13T08:41:27.354Z,13.96
2018-04-13T08:42:27.327Z,14.00
2018-04-13T08:43:27.269Z,13.95
2018-04-13T08:44:27.224Z,13.85
2018-04-13T08:45:27.200Z,13.84
2018-04-13T08:46:27.172Z,13.82
2018-04-13T08:47:27.146Z,13.67
2018-04-13T08:48:27.069Z,13.82
2018-04-13T08:49:27.037Z,13.82
2018-04-13T08:50:26.995Z,13.88
2018-04-13T08:51:26.980Z,14.03
2018-04-13T08:52:26.958Z,13.97
2018-04-13T08:53:26.932Z,14.00
2018-04-13T08:54:26.846Z,14.09
2018-04-13T08:55:26.810Z,14.32
2018-04-13T08:56:26.772Z,14.18
2018-04-13T08:57:26.742Z,14.12
2018-04-13T08:58:26.696Z,14.18
2018-04-13T08:59:26.701Z,14.33
2018-04-13T09:00:26.619Z,14.32
2018-04-13T09:01:26.594Z,14.42
2018-04-13T09:02:26.551Z,14.61
2018-04-13T09:03:26.522Z,14.70
2018-04-13T09:04:26.512Z,14.86
2018-04-13T09:05:26.439Z,14.91
2018-04-13T09:06:26.452Z,15.01
2018-04-13T09:07:26.373Z,15.01
2018-04-13T09:08:26.336Z,15.10
2018-04-13T09:09:26.298Z,15.32
2018-04-13T09:10:26.283Z,15.35
2018-04-13T09:11:26.232Z,15.43
2018-04-13T09:12:26.180Z,15.62
2018-04-13T09:13:26.151Z,15.74
2018-04-13T09:14:26.117Z,15.84
2018-04-13T09:15:26.086Z,16.04
2018-04-13T09:16:26.079Z,16.17
2018-04-13T09:17:26.011Z,16.33
2018-04-13T09:18:25.976Z,16.34
2018-04-13T09:19:25.937Z,16.21
2018-04-13T09:20:25.903Z,16.21
2018-04-13T09:21:25.905Z,16.50
2018-04-13T09:22:25.833Z,16.64
2018-04-13T09:23:25.798Z,16.83
2018-04-13T09:24:25.760Z,17.07
2018-04-13T09:25:25.733Z,17.01
2018-04-13T09:26:25.699Z,17.00
2018-04-13T09:27:25.686Z,16.98
2018-04-13T09:28:25.619Z,17.12
2018-04-13T09:29:25.590Z,17.28
2018-04-13T09:30:25.569Z,17.72
2018-04-13T09:31:25.526Z,18.03
2018-04-13T09:32:25.481Z,18.25
2018-04-13T09:33:25.483Z,18.25
2018-04-13T09:34:25.413Z,18.02
2018-04-13T09:35:25.383Z,17.54
2018-04-13T09:36:25.358Z,17.55
2018-04-13T09:37:25.316Z,17.56
2018-04-13T09:38:25.313Z,17.44
2018-04-13T09:39:25.292Z,17.55
2018-04-13T09:40:25.237Z,17.25
2018-04-13T09:41:25.183Z,17.43
2018-04-13T09:42:25.149Z,17.54
2018-04-13T09:43:25.115Z,17.43
2018-04-13T09:44:25.143Z,17.18
2018-04-13T09:45:25.049Z,17.12
2018-04-13T09:46:25.017Z,17.18
2018-04-13T09:47:24.991Z,17.19
2018-04-13T09:48:24.955Z,17.08
2018-04-13T09:49:24.924Z,17.06
2018-04-13T09:50:24.913Z,17.07
2018-04-13T09:51:24.847Z,16.94
2018-04-13T09:52:24.821Z,16.88
2018-04-13T09:53:24.785Z,16.86
2018-04-13T09:54:24.747Z,16.81
2018-04-13T09:55:24.724Z,16.73
2018-04-13T09:56:24.707Z,16.73
2018-04-13T09:57:24.639Z,16.79
2018-04-13T09:58:24.609Z,16.78
2018-04-13T09:59:24.580Z,16.58
2018-04-13T10:00:24.547Z,16.42
2018-04-13T10:01:24.540Z,16.43
2018-04-13T10:02:24.478Z,16.45
2018-04-13T10:03:24.447Z,16.52
2018-04-13T10:04:24.415Z,16.49
2018-04-13T10:05:24.379Z,16.50
2018-04-13T10:06:24.372Z,16.48
2018-04-13T10:07:24.309Z,16.41
2018-04-13T10:08:24.277Z,16.52
2018-04-13T10:09:24.232Z,16.42
2018-04-13T10:10:24.204Z,16.48
2018-04-13T10:11:24.198Z,16.31
2018-04-13T10:12:24.178Z,16.25
2018-04-13T10:13:24.095Z,16.12
2018-04-13T10:14:24.057Z,16.05
2018-04-13T10:15:24.029Z,16.09
2018-04-13T10:16:23.986Z,16.23
2018-04-13T10:17:23.990Z,16.25
2018-04-13T10:18:23.922Z,16.24
2018-04-13T10:19:23.887Z,16.25
2018-04-13T10:20:23.857Z,16.33
2018-04-13T10:21:23.822Z,16.12
2018-04-13T10:22:23.786Z,16.20
2018-04-13T10:23:23.774Z,16.25
2018-04-13T10:24:23.701Z,16.35
2018-04-13T10:25:23.671Z,16.11
2018-04-13T10:26:23.641Z,16.35
2018-04-13T10:27:23.609Z,16.24
2018-04-13T10:28:23.616Z,16.35
2018-04-13T10:29:23.532Z,16.39
2018-04-13T10:30:23.494Z,16.07
2018-04-13T10:31:23.460Z,16.11
2018-04-13T10:32:23.432Z,16.08
2018-04-13T10:33:23.382Z,16.09
2018-04-13T10:34:23.382Z,16.12
2018-04-13T10:35:23.323Z,16.09
2018-04-13T10:36:23.281Z,16.07
2018-04-13T10:37:23.244Z,16.04
2018-04-13T10:38:23.217Z,16.14
2018-04-13T10:39:23.186Z,16.14
2018-04-13T10:40:23.169Z,16.34
2018-04-13T10:41:23.110Z,16.33
2018-04-13T10:42:23.078Z,16.41
2018-04-13T10:43:23.043Z,16.52
2018-04-13T10:44:22.990Z,16.49
2018-04-13T10:45:22.999Z,16.25
2018-04-13T10:46:22.926Z,16.43
2018-04-13T10:47:22.897Z,16.46
2018-04-13T10:48:22.854Z,16.34
2018-04-13T10:49:22.855Z,16.35
2018-04-13T10:50:22.785Z,16.35
2018-04-13T10:51:22.785Z,16.07
2018-04-13T10:52:22.714Z,16.21
2018-04-13T10:53:22.670Z,16.07
2018-04-13T10:54:22.642Z,16.00
2018-04-13T10:55:22.602Z,15.93
2018-04-13T10:56:22.571Z,16.00
2018-04-13T10:57:22.567Z,16.05
2018-04-13T10:58:22.491Z,15.97
2018-04-13T10:59:22.463Z,16.07
2018-04-13T11:00:22.424Z,16.05
2018-04-13T11:01:22.389Z,16.09
2018-04-13T11:02:22.395Z,16.05
2018-04-13T11:03:22.320Z,16.04
2018-04-13T11:04:22.281Z,16.17
2018-04-13T11:05:22.261Z,16.02
2018-04-13T11:06:22.223Z,16.01
2018-04-13T11:07:22.172Z,16.07
2018-04-13T11:08:22.163Z,16.04
2018-04-13T11:09:22.116Z,16.12
2018-04-13T11:10:22.116Z,16.12
2018-04-13T11:11:22.032Z,16.21
2018-04-13T11:12:21.992Z,16.35
2018-04-13T11:13:21.992Z,16.35
2018-04-13T11:14:21.922Z,16.48
2018-04-13T11:15:21.888Z,16.52
2018-04-13T11:16:21.849Z,16.49
2018-04-13T11:17:21.845Z,16.46
2018-04-13T11:18:21.791Z,16.43
2018-04-13T11:19:21.775Z,16.42
2018-04-13T11:20:21.714Z,16.24
2018-04-13T11:21:21.671Z,16.09
2018-04-13T11:22:21.646Z,16.05
2018-04-13T11:23:21.600Z,16.11
2018-04-13T11:24:21.574Z,16.01
2018-04-13T11:25:21.569Z,16.05
2018-04-13T11:26:21.499Z,16.02
2018-04-13T11:27:21.459Z,16.20
2018-04-13T11:28:21.430Z,16.25
2018-04-13T11:29:21.391Z,16.21
2018-04-13T11:30:21.386Z,16.25
2018-04-13T11:31:21.319Z,16.08
2018-04-13T11:32:21.277Z,16.17
2018-04-13T11:33:21.241Z,16.21
2018-04-13T11:34:21.253Z,16.25
2018-04-13T11:35:21.174Z,16.20
2018-04-13T11:36:21.167Z,16.21
2018-04-13T11:37:21.103Z,16.34
2018-04-13T11:38:21.065Z,16.28
2018-04-13T11:39:21.030Z,16.42
2018-04-13T11:40:20.998Z,16.49
2018-04-13T11:41:20.958Z,16.56
2018-04-13T11:42:20.955Z,16.46
2018-04-13T11:43:20.890Z,16.67
2018-04-13T11:44:20.851Z,16.76
2018-04-13T11:45:20.830Z,16.76
2018-04-13T11:46:20.778Z,16.86
2018-04-13T11:47:20.770Z,16.93
2018-04-13T11:48:20.708Z,17.03
2018-04-13T11:49:20.667Z,17.07
2018-04-13T11:50:20.643Z,17.11
2018-04-13T11:51:20.603Z,17.18
2018-04-13T11:52:20.573Z,17.51
2018-04-13T11:53:20.564Z,17.40
2018-04-13T11:54:20.503Z,17.40
2018-04-13T11:55:20.467Z,17.54
2018-04-13T11:56:20.425Z,17.62
2018-04-13T11:57:20.385Z,17.54
2018-04-13T11:58:20.354Z,17.31
2018-04-13T11:59:20.361Z,17.62
2018-04-13T12:00:20.287Z,17.58
2018-04-13T12:01:20.252Z,17.55
2018-04-13T12:02:20.219Z,17.52
2018-04-13T12:03:20.182Z,17.79
2018-04-13T12:04:20.172Z,17.87
2018-04-13T12:05:20.128Z,18.03
2018-04-13T12:06:20.080Z,18.17
2018-04-13T12:07:20.054Z,18.25
2018-04-13T12:08:20.003Z,18.03
2018-04-13T12:09:19.976Z,18.15
2018-04-13T12:10:19.960Z,17.99
2018-04-13T12:11:19.926Z,17.97
2018-04-13T12:12:19.867Z,18.05
2018-04-13T12:13:19.838Z,17.96
2018-04-13T12:14:19.802Z,17.97
2018-04-13T12:15:19.783Z,18.10
2018-04-13T12:16:19.763Z,18.14
2018-04-13T12:17:19.716Z,18.32
2018-04-13T12:18:19.662Z,18.26
2018-04-13T12:19:19.639Z,18.20
2018-04-13T12:20:19.614Z,18.20
2018-04-13T12:21:19.563Z,18.36
2018-04-13T12:22:19.566Z,18.37
2018-04-13T12:23:19.514Z,18.26
2018-04-13T12:24:19.489Z,17.97
2018-04-13T12:25:19.436Z,17.89
2018-04-13T12:26:19.403Z,17.78
2018-04-13T12:27:19.392Z,17.68
2018-04-13T12:28:19.328Z,17.38
2018-04-13T12:29:19.304Z,17.19
2018-04-13T12:30:19.271Z,17.08
2018-04-13T12:31:19.279Z,17.07
2018-04-13T12:32:19.198Z,17.03
2018-04-13T12:33:19.197Z,17.15
2018-04-13T12:34:19.142Z,17.25
2018-04-13T12:35:19.112Z,17.30
2018-04-13T12:36:19.064Z,17.37
2018-04-13T12:37:19.039Z,17.54
2018-04-13T12:38:18.999Z,17.48
2018-04-13T12:39:18.995Z,17.55
2018-04-13T12:40:18.928Z,17.52
2018-04-13T12:41:18.901Z,17.55
2018-04-13T12:42:18.860Z,17.46
2018-04-13T12:43:18.839Z,17.34
2018-04-13T12:44:18.826Z,17.30
2018-04-13T12:45:18.854Z,17.19
2018-04-13T12:46:18.735Z,17.31
2018-04-13T12:47:18.681Z,17.26
2018-04-13T12:48:18.652Z,17.26
2018-04-13T12:49:18.616Z,17.44
2018-04-13T12:50:18.607Z,17.48
2018-04-13T12:51:18.555Z,17.41
2018-04-13T12:52:18.519Z,17.63
2018-04-13T12:53:18.495Z,17.66
2018-04-13T12:54:18.500Z,17.66
2018-04-13T12:55:18.418Z,17.68
2018-04-13T12:56:18.408Z,17.54
2018-04-13T12:57:18.343Z,17.46
2018-04-13T12:58:18.307Z,17.49
2018-04-13T12:59:18.269Z,17.54
2018-04-13T13:00:18.250Z,17.62
2018-04-13T13:01:18.230Z,17.59
2018-04-13T13:02:18.185Z,17.52
2018-04-13T13:03:18.146Z,17.44
2018-04-13T13:04:18.105Z,17.40